createdAt,value
2023-01-13T00:00:15.884Z,23.83
2023-01-13T00:02:42.733Z,23.70
2023-01-13T00:05:10.409Z,21.58
2023-01-13T00:07:40.038Z,22.30
2023-01-13T00:10:11.373Z,24.17
2023-01-13T00:12:42.255Z,24.23
2023-01-13T00:15:11.647Z,22.05
2023-01-13T00:17:38.924Z,25.33
2023-01-13T00:20:06.782Z,23.73
2023-01-13T00:22:35.257Z,26.73
2023-01-13T00:25:04.223Z,19.10
2023-01-13T00:27:31.503Z,23.88
2023-01-13T00:29:58.470Z,25.08
2023-01-13T00:32:25.263Z,23.55
2023-01-13T00:34:55.944Z,21.52
2023-01-13T00:37:23.415Z,18.63
2023-01-13T00:39:53.165Z,21.63
2023-01-13T00:42:39.489Z,22.05
2023-01-13T00:45:11.398Z,22.00
2023-01-13T00:47:38.939Z,21.33
2023-01-13T00:50:09.377Z,18.23
2023-01-13T00:52:36.556Z,26.75
2023-01-13T00:55:03.547Z,23.83
2023-01-13T00:57:30.193Z,23.80
2023-01-13T00:59:56.816Z,25.50
2023-01-13T01:02:23.506Z,24.15
2023-01-13T01:04:50.260Z,22.33
2023-01-13T01:07:17.184Z,23.75
2023-01-13T01:09:43.896Z,24.30
2023-01-13T01:12:10.634Z,33.13
2023-01-13T01:14:37.267Z,25.63
2023-01-13T01:17:04.004Z,26.23
2023-01-13T01:19:30.679Z,24.38
2023-01-13T01:21:57.299Z,25.05
2023-01-13T01:24:24.032Z,23.13
2023-01-13T01:26:50.722Z,24.95
2023-01-13T01:29:17.911Z,24.67
2023-01-13T01:31:44.695Z,25.50
2023-01-13T01:34:11.613Z,23.88
2023-01-13T01:36:39.449Z,25.75
2023-01-13T01:39:06.806Z,24.85
2023-01-13T01:41:35.796Z,26.08
2023-01-13T01:44:25.963Z,23.55
2023-01-13T01:46:53.770Z,25.75
2023-01-13T01:49:33.229Z,21.63
2023-01-13T01:52:07.028Z,24.95
2023-01-13T01:54:53.152Z,25.17
2023-01-13T01:57:27.648Z,25.75
2023-01-13T01:59:54.784Z,23.63
2023-01-13T02:02:22.446Z,24.02
2023-01-13T02:04:53.695Z,25.00
2023-01-13T02:07:27.299Z,24.00
2023-01-13T02:09:56.641Z,22.90
2023-01-13T02:12:32.169Z,22.70
2023-01-13T02:15:23.052Z,26.75
2023-01-13T02:18:36.249Z,22.70
2023-01-13T02:22:08.096Z,25.27
2023-01-13T02:24:55.938Z,27.60
2023-01-13T02:27:50.799Z,26.52
2023-01-13T02:30:48.550Z,26.45
2023-01-13T02:33:38.165Z,23.90
2023-01-13T02:36:27.097Z,27.20
2023-01-13T02:39:49.045Z,26.10
2023-01-13T02:42:46.955Z,26.73
2023-01-13T02:45:21.110Z,28.17
2023-01-13T02:47:50.701Z,26.17
2023-01-13T02:50:23.986Z,25.80
2023-01-13T02:52:57.014Z,27.65
2023-01-13T02:55:49.762Z,24.95
2023-01-13T02:58:26.155Z,27.45
2023-01-13T03:00:53.007Z,28.35
2023-01-13T03:03:19.766Z,28.05
2023-01-13T03:05:48.781Z,26.08
2023-01-13T03:08:39.527Z,28.60
2023-01-13T03:11:09.595Z,30.80
2023-01-13T03:14:17.293Z,26.05
2023-01-13T03:17:20.302Z,26.08
2023-01-13T03:20:17.891Z,27.98
2023-01-13T03:22:58.973Z,28.20
2023-01-13T03:25:33.250Z,24.23
2023-01-13T03:28:10.023Z,24.70
2023-01-13T03:30:45.119Z,28.50
2023-01-13T03:33:19.888Z,28.52
2023-01-13T03:35:53.024Z,26.45
2023-01-13T03:38:33.873Z,27.25
2023-01-13T03:41:07.610Z,27.90
2023-01-13T03:44:12.935Z,29.05
2023-01-13T03:46:52.737Z,27.85
2023-01-13T03:49:23.857Z,28.42
2023-01-13T03:51:58.377Z,27.40
2023-01-13T03:54:31.966Z,29.47
2023-01-13T03:57:09.940Z,26.75
2023-01-13T03:59:42.949Z,28.00
2023-01-13T04:02:47.195Z,29.10
2023-01-13T04:05:14.459Z,27.55
2023-01-13T04:08:09.829Z,28.27
2023-01-13T04:10:45.585Z,28.33
2023-01-13T04:13:19.162Z,28.83
2023-01-13T04:15:47.035Z,26.25
2023-01-13T04:18:21.401Z,26.63
2023-01-13T04:20:50.644Z,26.30
2023-01-13T04:23:19.035Z,25.00
2023-01-13T04:25:56.301Z,27.70
2023-01-13T04:28:23.914Z,27.45
2023-01-13T04:30:52.232Z,27.40
2023-01-13T04:33:21.038Z,24.95
2023-01-13T04:35:49.218Z,28.42
2023-01-13T04:38:20.326Z,25.42
2023-01-13T04:40:49.066Z,26.15
2023-01-13T04:43:16.862Z,30.45
2023-01-13T04:45:44.419Z,24.65
2023-01-13T04:48:12.096Z,28.48
2023-01-13T04:50:40.023Z,25.10
2023-01-13T04:53:07.565Z,24.63
2023-01-13T04:55:35.494Z,28.67
2023-01-13T04:58:11.956Z,27.05
2023-01-13T05:00:38.920Z,26.95
2023-01-13T05:03:05.619Z,27.70
2023-01-13T05:05:32.489Z,25.92
2023-01-13T05:07:59.648Z,26.67
2023-01-13T05:10:27.131Z,27.98
2023-01-13T05:13:12.313Z,27.45
2023-01-13T05:16:01.361Z,25.75
2023-01-13T05:18:31.160Z,28.33
2023-01-13T05:20:57.994Z,30.23
2023-01-13T05:23:44.341Z,27.15
2023-01-13T05:26:11.367Z,25.08
2023-01-13T05:28:38.624Z,24.30
2023-01-13T05:31:05.786Z,28.65
2023-01-13T05:33:33.670Z,27.92
2023-01-13T05:36:03.029Z,27.90
2023-01-13T05:38:29.758Z,28.42
2023-01-13T05:41:18.596Z,27.25
2023-01-13T05:43:45.298Z,28.50
2023-01-13T05:46:12.458Z,27.77
2023-01-13T05:48:42.833Z,28.70
2023-01-13T05:51:12.336Z,28.10
2023-01-13T05:53:40.889Z,27.42
2023-01-13T05:56:09.262Z,27.98
2023-01-13T05:58:35.960Z,27.45
2023-01-13T06:01:07.167Z,26.58
2023-01-13T06:03:34.408Z,27.08
2023-01-13T06:06:02.216Z,27.50
2023-01-13T06:08:30.286Z,30.08
2023-01-13T06:10:57.219Z,27.85
2023-01-13T06:13:25.319Z,24.02
2023-01-13T06:15:56.569Z,28.05
2023-01-13T06:18:24.261Z,23.73
2023-01-13T06:20:51.224Z,27.48
2023-01-13T06:23:18.082Z,26.63
2023-01-13T06:25:55.792Z,28.45
2023-01-13T06:28:22.569Z,24.02
2023-01-13T06:30:56.472Z,26.38
2023-01-13T06:33:31.917Z,25.95
2023-01-13T06:36:06.196Z,26.40
2023-01-13T06:38:37.670Z,23.92
2023-01-13T06:41:07.177Z,23.88
2023-01-13T06:43:34.075Z,26.17
2023-01-13T06:46:02.655Z,27.42
2023-01-13T06:48:35.041Z,24.38
2023-01-13T06:51:03.810Z,25.95
2023-01-13T06:53:34.834Z,20.52
2023-01-13T06:56:01.591Z,25.70
2023-01-13T06:58:28.244Z,25.17
2023-01-13T07:00:55.071Z,25.48
2023-01-13T07:03:21.804Z,26.88
2023-01-13T07:05:56.051Z,27.77
2023-01-13T07:08:24.196Z,26.30
2023-01-13T07:10:51.290Z,27.15
2023-01-13T07:13:36.608Z,27.45
2023-01-13T07:16:07.508Z,26.17
2023-01-13T07:18:35.559Z,25.42
2023-01-13T07:21:05.957Z,28.42
2023-01-13T07:23:37.323Z,27.55
2023-01-13T07:26:05.215Z,28.23
2023-01-13T07:28:32.783Z,28.13
2023-01-13T07:31:01.203Z,27.33
2023-01-13T07:33:28.107Z,27.58
2023-01-13T07:36:01.260Z,26.75
2023-01-13T07:38:28.819Z,28.33
2023-01-13T07:40:55.586Z,26.17
2023-01-13T07:43:31.979Z,25.45
2023-01-13T07:46:04.835Z,28.42
2023-01-13T07:48:35.203Z,27.65
2023-01-13T07:51:07.641Z,29.17
2023-01-13T07:53:35.174Z,26.98
2023-01-13T07:56:04.011Z,27.63
2023-01-13T07:58:30.873Z,28.60
2023-01-13T08:00:57.909Z,27.40
2023-01-13T08:03:25.158Z,28.40
2023-01-13T08:05:51.982Z,25.92
2023-01-13T08:08:19.455Z,25.55
2023-01-13T08:10:46.329Z,26.38
2023-01-13T08:13:20.793Z,23.95
2023-01-13T08:15:50.500Z,26.63
2023-01-13T08:18:21.919Z,28.35
2023-01-13T08:20:52.301Z,26.60
2023-01-13T08:23:21.656Z,26.52
2023-01-13T08:25:49.453Z,27.73
2023-01-13T08:28:17.763Z,28.63
2023-01-13T08:30:44.745Z,29.73
2023-01-13T08:33:12.746Z,28.13
2023-01-13T08:35:42.107Z,28.60
2023-01-13T08:38:09.181Z,30.27
2023-01-13T08:40:36.682Z,26.63
2023-01-13T08:43:03.888Z,27.42
2023-01-13T08:45:31.055Z,27.00
2023-01-13T08:47:58.048Z,30.02
2023-01-13T08:50:24.757Z,26.10
2023-01-13T08:52:51.500Z,25.23
2023-01-13T08:55:18.354Z,29.17
2023-01-13T08:57:45.261Z,28.65
2023-01-13T09:00:13.509Z,26.77
2023-01-13T09:02:40.764Z,29.70
2023-01-13T09:05:09.451Z,29.00
2023-01-13T09:07:39.067Z,27.75
2023-01-13T09:10:08.033Z,26.60
2023-01-13T09:12:53.531Z,26.90
2023-01-13T09:15:21.635Z,29.73
2023-01-13T09:17:48.499Z,28.92
2023-01-13T09:20:15.406Z,29.27
2023-01-13T09:22:42.210Z,29.20
2023-01-13T09:25:12.742Z,30.75
2023-01-13T09:27:39.960Z,26.27
2023-01-13T09:30:08.088Z,28.48
2023-01-13T09:32:35.531Z,28.55
2023-01-13T09:35:02.857Z,28.52
2023-01-13T09:37:39.159Z,27.45
2023-01-13T09:40:15.916Z,28.48
2023-01-13T09:43:41.905Z,28.77
2023-01-13T09:46:36.277Z,27.33
2023-01-13T09:49:03.939Z,29.63
2023-01-13T09:51:38.773Z,26.70
2023-01-13T09:54:22.920Z,26.27
2023-01-13T09:56:49.706Z,26.70
2023-01-13T09:59:16.559Z,28.08
2023-01-13T10:01:54.424Z,27.77
2023-01-13T10:04:27.913Z,26.33
2023-01-13T10:07:03.764Z,29.33
2023-01-13T10:09:47.143Z,29.45
2023-01-13T10:12:40.948Z,27.60
2023-01-13T10:15:16.570Z,29.60
2023-01-13T10:17:53.208Z,27.58
2023-01-13T10:20:31.529Z,29.60
2023-01-13T10:23:10.439Z,33.78
2023-01-13T10:26:11.287Z,26.23
2023-01-13T10:28:38.268Z,28.90
2023-01-13T10:31:12.313Z,28.30
2023-01-13T10:33:39.119Z,28.88
2023-01-13T10:36:13.799Z,30.27
2023-01-13T10:38:47.316Z,30.67
2023-01-13T10:41:17.832Z,27.33
2023-01-13T10:44:09.492Z,24.52
2023-01-13T10:46:53.120Z,31.80
2023-01-13T10:49:33.555Z,35.25
2023-01-13T10:52:02.726Z,28.65
2023-01-13T10:54:30.740Z,29.92
2023-01-13T10:57:24.164Z,27.52
2023-01-13T10:59:52.955Z,27.38
2023-01-13T11:02:30.524Z,27.42
2023-01-13T11:04:58.138Z,26.58
2023-01-13T11:07:52.418Z,28.38
2023-01-13T11:10:24.003Z,27.90
2023-01-13T11:13:11.901Z,28.20
2023-01-13T11:16:04.011Z,26.63
2023-01-13T11:19:13.229Z,24.98
2023-01-13T11:22:01.799Z,27.15
2023-01-13T11:24:37.087Z,30.98
2023-01-13T11:27:45.069Z,27.58
2023-01-13T11:31:01.642Z,29.08
2023-01-13T11:33:42.205Z,30.30
2023-01-13T11:36:20.391Z,26.33
2023-01-13T11:39:03.584Z,29.40
2023-01-13T11:42:21.560Z,27.20
2023-01-13T11:45:22.713Z,29.50
2023-01-13T11:47:54.923Z,28.77
2023-01-13T11:50:47.992Z,29.13
2023-01-13T11:53:45.288Z,30.98
2023-01-13T11:56:39.560Z,29.35
2023-01-13T11:59:32.405Z,30.55
2023-01-13T12:02:08.444Z,29.80
2023-01-13T12:05:09.179Z,33.60
2023-01-13T12:08:03.529Z,28.58
2023-01-13T12:10:46.202Z,29.08
2023-01-13T12:13:24.333Z,27.55
2023-01-13T12:16:23.611Z,28.50
2023-01-13T12:19:09.105Z,27.92
2023-01-13T12:21:55.156Z,26.85
2023-01-13T12:24:48.501Z,30.13
2023-01-13T12:27:48.484Z,28.00
2023-01-13T12:30:36.939Z,28.17
2023-01-13T12:33:38.876Z,26.98
2023-01-13T12:36:43.138Z,29.83
2023-01-13T12:43:07.675Z,29.27
2023-01-13T12:45:34.928Z,29.77
2023-01-13T12:48:01.839Z,33.17
2023-01-13T12:50:29.119Z,27.98
2023-01-13T12:53:30.482Z,28.95
2023-01-13T12:56:36.486Z,33.20
2023-01-13T12:59:33.969Z,33.10
2023-01-13T13:02:13.170Z,33.05
2023-01-13T13:04:51.167Z,33.40
2023-01-13T13:07:35.929Z,32.40
2023-01-13T13:10:15.923Z,31.35
2023-01-13T13:13:01.154Z,31.35
2023-01-13T13:15:36.289Z,33.30
2023-01-13T13:18:20.850Z,35.97
2023-01-13T13:21:11.095Z,31.38
2023-01-13T13:24:02.901Z,30.80
2023-01-13T13:26:35.389Z,31.42
2023-01-13T13:29:42.111Z,31.95
2023-01-13T13:32:19.263Z,33.10
2023-01-13T13:35:04.891Z,31.65
2023-01-13T13:38:10.664Z,33.30
2023-01-13T13:41:04.451Z,32.53
2023-01-13T13:44:07.829Z,31.77
2023-01-13T13:46:49.744Z,32.10
2023-01-13T13:49:17.630Z,31.30
2023-01-13T13:52:10.915Z,34.58
2023-01-13T13:54:42.152Z,32.90
2023-01-13T13:57:19.616Z,31.92
2023-01-13T14:00:07.034Z,33.25
2023-01-13T14:02:41.960Z,32.53
2023-01-13T14:05:22.742Z,32.90
2023-01-13T14:08:00.794Z,30.10
2023-01-13T14:10:37.253Z,32.67
2023-01-13T14:13:24.974Z,33.85
2023-01-13T14:16:06.810Z,34.13
2023-01-13T14:18:47.679Z,35.78
2023-01-13T14:21:22.128Z,32.95
2023-01-13T14:24:17.485Z,32.90
2023-01-13T14:26:44.599Z,30.65
2023-01-13T14:29:24.117Z,33.97
2023-01-13T14:31:53.385Z,33.47
2023-01-13T14:34:32.031Z,35.75
2023-01-13T14:37:02.802Z,33.53
2023-01-13T14:39:41.642Z,33.00
2023-01-13T14:42:13.634Z,30.10
2023-01-13T14:44:48.507Z,30.50
2023-01-13T14:47:28.206Z,29.80
2023-01-13T14:50:11.745Z,33.70
2023-01-13T14:53:00.662Z,33.20
2023-01-13T14:55:40.199Z,34.97
2023-01-13T14:58:22.221Z,29.50
2023-01-13T15:00:51.368Z,31.23
2023-01-13T15:03:20.985Z,33.47
2023-01-13T15:05:52.898Z,31.48
2023-01-13T15:08:29.730Z,30.65
2023-01-13T15:11:04.425Z,26.83
2023-01-13T15:13:53.039Z,25.05
2023-01-13T15:16:26.551Z,33.97
2023-01-13T15:18:56.416Z,31.73
2023-01-13T15:21:23.976Z,30.98
2023-01-13T15:23:51.031Z,30.65
2023-01-13T15:26:29.617Z,28.38
2023-01-13T15:28:59.045Z,31.70
2023-01-13T15:31:29.183Z,33.90
2023-01-13T15:33:56.139Z,30.58
2023-01-13T15:36:34.409Z,33.22
2023-01-13T15:39:01.974Z,33.58
2023-01-13T15:41:53.802Z,32.97
2023-01-13T15:44:39.041Z,32.42
2023-01-13T15:47:08.472Z,36.17
2023-01-13T15:49:43.442Z,31.80
2023-01-13T15:52:21.687Z,33.63
2023-01-13T15:54:49.831Z,29.85
2023-01-13T15:57:31.762Z,32.17
2023-01-13T16:00:03.980Z,33.38
2023-01-13T16:02:33.381Z,32.17
2023-01-13T16:05:00.054Z,32.75
2023-01-13T16:07:26.817Z,32.05
2023-01-13T16:09:53.700Z,30.55
2023-01-13T16:12:20.534Z,32.47
2023-01-13T16:14:47.199Z,33.60
2023-01-13T16:17:25.083Z,33.05
2023-01-13T16:19:52.080Z,32.83
2023-01-13T16:22:18.885Z,32.78
2023-01-13T16:24:45.794Z,31.23
2023-01-13T16:27:15.900Z,33.72
2023-01-13T16:29:44.226Z,32.72
2023-01-13T16:32:11.428Z,29.90
2023-01-13T16:34:38.371Z,34.95
2023-01-13T16:37:22.733Z,30.88
2023-01-13T16:42:16.862Z,32.45
2023-01-13T16:44:44.186Z,33.55
2023-01-13T16:47:16.459Z,31.10
2023-01-13T16:49:43.925Z,29.20
2023-01-13T16:52:11.050Z,33.97
2023-01-13T16:54:37.760Z,32.67
2023-01-13T16:57:04.790Z,34.75
2023-01-13T16:59:31.817Z,30.83
2023-01-13T17:01:58.501Z,32.35
2023-01-13T17:04:25.574Z,35.97
2023-01-13T17:07:03.970Z,31.35
2023-01-13T17:09:31.313Z,31.85
2023-01-13T17:11:58.911Z,34.03
2023-01-13T17:14:26.453Z,32.58
2023-01-13T17:16:55.450Z,31.63
2023-01-13T17:19:24.767Z,31.98
2023-01-13T17:21:51.515Z,31.23
2023-01-13T17:24:18.678Z,34.53
2023-01-13T17:26:49.246Z,32.75
2023-01-13T17:29:22.985Z,32.70
2023-01-13T17:31:51.086Z,32.03
2023-01-13T17:34:19.167Z,34.80
2023-01-13T17:36:45.853Z,34.15
2023-01-13T17:39:21.802Z,34.42
2023-01-13T17:41:48.563Z,30.33
2023-01-13T17:44:20.957Z,31.58
2023-01-13T17:46:47.752Z,30.77
2023-01-13T17:49:17.496Z,31.17
2023-01-13T17:51:48.082Z,34.45
2023-01-13T17:54:15.697Z,33.78
2023-01-13T17:56:42.852Z,31.70
2023-01-13T17:59:13.450Z,28.55
2023-01-13T18:01:40.786Z,31.23
2023-01-13T18:04:10.987Z,34.45
2023-01-13T18:06:37.681Z,34.50
2023-01-13T18:09:04.395Z,32.65
2023-01-13T18:11:31.105Z,33.53
2023-01-13T18:13:57.991Z,32.50
2023-01-13T18:16:27.420Z,30.40
2023-01-13T18:19:19.074Z,33.83
2023-01-13T18:22:05.896Z,33.97
2023-01-13T18:24:51.838Z,34.05
2023-01-13T18:27:24.182Z,33.85
2023-01-13T18:29:53.930Z,37.70
2023-01-13T18:32:23.154Z,31.25
2023-01-13T18:34:53.966Z,33.95
2023-01-13T18:37:26.182Z,32.78
2023-01-13T18:39:53.320Z,28.92
2023-01-13T18:42:38.499Z,31.38
2023-01-13T18:45:05.713Z,35.13
2023-01-13T18:47:33.540Z,33.92
2023-01-13T18:50:00.651Z,37.22
2023-01-13T18:52:28.527Z,31.42
2023-01-13T18:54:55.231Z,31.98
2023-01-13T18:57:22.285Z,34.78
2023-01-13T18:59:49.239Z,35.65
2023-01-13T19:02:20.058Z,34.42
2023-01-13T19:04:47.750Z,32.72
2023-01-13T19:07:23.536Z,34.55
2023-01-13T19:09:50.394Z,33.97
2023-01-13T19:12:23.513Z,31.55
2023-01-13T19:14:50.222Z,34.00
2023-01-13T19:17:17.040Z,35.55
2023-01-13T19:19:50.904Z,33.28
2023-01-13T19:22:37.841Z,30.42
2023-01-13T19:25:05.476Z,31.08
2023-01-13T19:27:32.367Z,31.27
2023-01-13T19:30:00.753Z,32.22
2023-01-13T19:32:30.663Z,31.65
2023-01-13T19:34:59.518Z,31.52
2023-01-13T19:37:30.211Z,31.58
2023-01-13T19:40:00.588Z,33.33
2023-01-13T19:42:46.392Z,29.90
2023-01-13T19:45:27.784Z,30.25
2023-01-13T19:47:56.239Z,28.75
2023-01-13T19:50:23.612Z,27.85
2023-01-13T19:52:50.336Z,28.23
2023-01-13T19:55:17.241Z,30.10
2023-01-13T19:57:43.946Z,25.08
2023-01-13T20:00:15.172Z,27.98
2023-01-13T20:02:47.819Z,27.65
2023-01-13T20:05:18.244Z,33.92
2023-01-13T20:07:44.976Z,29.52
2023-01-13T20:10:13.322Z,29.83
2023-01-13T20:12:41.578Z,29.27
2023-01-13T20:15:10.418Z,31.30
2023-01-13T20:17:37.724Z,30.40
2023-01-13T20:20:05.677Z,29.45
2023-01-13T20:22:32.462Z,29.55
2023-01-13T20:24:59.108Z,30.30
2023-01-13T20:27:26.037Z,30.05
2023-01-13T20:29:52.727Z,32.17
2023-01-13T20:32:19.806Z,28.55
2023-01-13T20:34:46.729Z,30.23
2023-01-13T20:37:13.786Z,28.98
2023-01-13T20:39:44.282Z,28.90
2023-01-13T20:42:39.573Z,31.88
2023-01-13T20:45:07.092Z,29.33
2023-01-13T20:47:33.912Z,31.38
2023-01-13T20:50:00.596Z,32.35
2023-01-13T20:52:28.255Z,29.17
2023-01-13T20:54:55.269Z,28.20
2023-01-13T20:57:22.368Z,28.85
2023-01-13T20:59:49.274Z,29.85
2023-01-13T21:02:17.389Z,30.45
2023-01-13T21:04:44.370Z,30.08
2023-01-13T21:07:11.499Z,29.23
2023-01-13T21:09:38.160Z,27.73
2023-01-13T21:12:24.560Z,26.42
2023-01-13T21:15:09.943Z,28.67
2023-01-13T21:17:55.599Z,29.88
2023-01-13T21:20:22.769Z,36.70
2023-01-13T21:22:50.205Z,29.20
2023-01-13T21:25:18.655Z,28.45
2023-01-13T21:27:46.615Z,31.20
2023-01-13T21:30:15.848Z,28.20
2023-01-13T21:32:44.572Z,27.55
2023-01-13T21:35:12.590Z,34.97
2023-01-13T21:37:41.269Z,29.70
2023-01-13T21:40:16.033Z,31.15
2023-01-13T21:43:02.244Z,28.73
2023-01-13T21:45:50.144Z,29.17
2023-01-13T21:48:17.282Z,28.52
2023-01-13T21:50:45.359Z,31.20
2023-01-13T21:53:12.231Z,30.52
2023-01-13T21:55:39.380Z,30.55
2023-01-13T21:58:14.658Z,27.13
2023-01-13T22:03:14.757Z,31.58
2023-01-13T22:05:41.780Z,27.98
2023-01-13T22:08:11.675Z,28.10
2023-01-13T22:10:57.756Z,31.73
2023-01-13T22:13:44.676Z,29.95
2023-01-13T22:16:11.806Z,33.78
2023-01-13T22:18:38.578Z,34.22
2023-01-13T22:21:06.560Z,37.38
2023-01-13T22:23:33.941Z,31.73
2023-01-13T22:26:06.314Z,30.55
2023-01-13T22:28:51.061Z,34.78
2023-01-13T22:31:23.645Z,31.92
2023-01-13T22:33:55.720Z,31.00
2023-01-13T22:36:26.777Z,32.72
2023-01-13T22:38:56.362Z,32.17
2023-01-13T22:41:23.960Z,33.10
2023-01-13T22:43:50.749Z,31.13
2023-01-13T22:46:18.128Z,28.83
2023-01-13T22:48:46.257Z,31.65
2023-01-13T22:51:16.092Z,38.20
2023-01-13T22:53:43.391Z,36.15
2023-01-13T22:56:18.002Z,31.30
2023-01-13T22:58:44.947Z,33.43
2023-01-13T23:01:17.279Z,35.25
2023-01-13T23:03:47.652Z,30.80
2023-01-13T23:06:14.818Z,34.47
2023-01-13T23:08:41.830Z,33.53
2023-01-13T23:11:13.074Z,33.03
2023-01-13T23:13:42.817Z,32.03
2023-01-13T23:16:17.034Z,33.35
2023-01-13T23:18:48.099Z,30.48
2023-01-13T23:21:23.683Z,30.35
2023-01-13T23:23:51.085Z,32.78
2023-01-13T23:26:18.343Z,29.23
2023-01-13T23:28:45.291Z,30.42
2023-01-13T23:31:21.267Z,34.03
2023-01-13T23:33:48.895Z,35.53
2023-01-13T23:36:20.123Z,29.25
2023-01-13T23:38:47.293Z,44.72
2023-01-13T23:41:17.515Z,34.65
2023-01-13T23:43:44.340Z,32.47
2023-01-13T23:46:14.091Z,32.63
2023-01-13T23:48:40.900Z,32.83
2023-01-13T23:51:11.716Z,34.13
2023-01-13T23:53:45.042Z,31.55
2023-01-13T23:56:17.967Z,32.28
2023-01-13T23:58:45.397Z,36.38
